KGIC

Details ICAO KGIC
Name Idaho County Airport
Region United States
Timezone America/Los_Angeles (UTC-8.0)
Plans Departing 1
Arriving 4
Stats Elevation 3,310 ft / 1,009 m (AMSL)
Location 45.942558° -116.123417°
Runways 1
Magnetic Variation 13.806° E
Sunrise 2017-12-11 15:17:52 UTC / 2017-12-11 07:17:52 Local
Sunset 2017-12-12 00:00:50 UTC / 2017-12-11 16:00:50 Local
Advertisement - Login to hide

Runways

ID Width Length Bearing (true) Bearing (mag) Surface Threshold Offset Overrun Length
07 75 ft / 23 m 5,087 ft / 1,550 m 90.61° 76.80° Asphalt 102 ft / 31 m 0 ft / 0 m
25 75 ft / 23 m 5,087 ft / 1,550 m 270.62° 256.81° Asphalt 0 ft / 0 m 0 ft / 0 m

Map

Weather


0- 5 10 15 20 25 30 35+ Temperature / ° C

Clouds and Precipitation
Forecast for 2017-12-11 18:00 UTC. Updated 29 minutes ago

Ground ~20,000 ft ~40,000 ft Winds

METAR

KGIC 111535Z AUTO 00000KT 4SM CLR M10/M11 A3053 RMK AO1

TAF

Not found

Frequencies

Unicom 122.90 MHz CTAF
Approach 123.95 MHz SEATTLE CNTR
Warning: Do not use this data for real-world aviation or navigation. No guarantee of current accuracy is given.